Time;durP1;ratioP1;P1;durP2;ratioP2;P2;SDS_P1;SDS_P2;PMS_P1;PMS_P2;Temp;Humidity;BMP_temperature;BMP_pressure;BME280_temperature;BME280_humidity;BME280_pressure;Samples;Min_cycle;Max_cycle;Signal;HPM_P1;HPM_P2
2022/05/04 00:00:03;;;;;;;;;;;;;;;;;;5138099;27;28392;-81
2022/05/04 00:02:29;;;;;;;;;;;;;;;;;;5139955;27;28872;-81
2022/05/04 00:04:54;;;;;;;;;;;;;;;;;;5139775;27;28322;-81
2022/05/04 00:07:19;;;;;;;;;;;;;;;;;;5139254;27;28823;-81
2022/05/04 00:09:44;;;;;;;;;;;;;;;;;;5139448;27;28400;-81
2022/05/04 00:12:09;;;;;;;;;;;;;;;;;;5139585;27;28906;-81
2022/05/04 00:14:34;;;;;;;;;;;;;;;;;;5139793;27;28423;-81
2022/05/04 00:16:59;;;;;;;;;;;;;;;;;;5139258;27;28506;-81
2022/05/04 00:19:24;;;;;;;;;;;;;;;;;;5139418;27;28456;-81
2022/05/04 00:21:49;;;;;;;;;;;;;;;;;;5139339;27;28976;-81
2022/05/04 00:24:19;;;;;;;;;;;;;;;;;;5139474;27;28319;-81
2022/05/04 00:26:44;;;;;;;;;;;;;;;;;;5139446;27;28606;-81
2022/05/04 00:29:09;;;;;;;;;;;;;;;;;;5139217;27;28281;-81
2022/05/04 00:31:34;;;;;;;;;;;;;;;;;;5139375;27;28181;-81
2022/05/04 00:34:00;;;;;;;;;;;;;;;;;;5138059;27;28461;-81
2022/05/04 00:36:25;;;;;;;;;;;;;;;;;;5138813;27;28338;-81
2022/05/04 00:38:50;;;;;;;;;;;;;;;;;;5137874;27;28759;-81
2022/05/04 00:41:15;;;;;;;;;;;;;;;;;;5138971;27;28342;-81
2022/05/04 00:43:40;;;;;;;;;;;;;;;;;;5138275;27;28270;-81
2022/05/04 00:46:05;;;;;;;;;;;;;;;;;;5138767;27;28320;-81
2022/05/04 00:48:30;;;;;;;;;;;;;;;;;;5139181;27;28417;-81
2022/05/04 00:50:55;;;;;;;;;;;;;;;;;;5138694;27;28379;-81
2022/05/04 00:53:21;;;;;;;;;;;;;;;;;;5139218;27;28235;-81
2022/05/04 00:55:46;;;;;;;;;;;;;;;;;;5138938;27;28380;-81
2022/05/04 01:00:55;;;;;;;;;;;;;;;;;;5137792;27;28495;-82
2022/05/04 01:03:20;;;;;;;;;;;;;;;;;;5137418;27;28537;-81
2022/05/04 01:05:45;;;;;;;;;;;;;;;;;;5138195;27;29075;-81
2022/05/04 01:08:10;;;;;;;;;;;;;;;;;;5138524;27;28306;-81
2022/05/04 01:10:35;;;;;;;;;;;;;;;;;;5138534;27;28318;-80
2022/05/04 01:13:00;;;;;;;;;;;;;;;;;;5138307;27;28461;-80
2022/05/04 01:15:25;;;;;;;;;;;;;;;;;;5138508;27;28429;-81
2022/05/04 01:17:51;;;;;;;;;;;;;;;;;;5138460;27;28399;-80
2022/05/04 01:20:16;;;;;;;;;;;;;;;;;;5138608;27;28520;-81
2022/05/04 01:22:41;;;;;;;;;;;;;;;;;;5138267;27;28373;-81
2022/05/04 01:25:06;;;;;;;;;;;;;;;;;;5137957;27;28892;-80
2022/05/04 01:27:31;;;;;;;;;;;;;;;;;;5138291;27;28383;-81
2022/05/04 01:29:56;;;;;;;;;;;;;;;;;;5138200;27;28380;-81
2022/05/04 01:32:21;;;;;;;;;;;;;;;;;;5138545;27;28281;-81
2022/05/04 01:34:46;;;;;;;;;;;;;;;;;;5138040;27;28429;-81
2022/05/04 01:37:11;;;;;;;;;;;;;;;;;;5137869;27;28641;-80
2022/05/04 01:39:36;;;;;;;;;;;;;;;;;;5138360;27;28350;-81
2022/05/04 01:42:13;;;;;;;;;;;;;;;;;;5138045;27;28306;-80
2022/05/04 01:44:38;;;;;;;;;;;;;;;;;;5137814;27;29439;-80
2022/05/04 01:47:03;;;;;;;;;;;;;;;;;;5138265;27;28514;-81
2022/05/04 01:49:28;;;;;;;;;;;;;;;;;;5137711;27;28333;-81
2022/05/04 01:51:54;;;;;;;;;;;;;;;;;;5137885;27;28401;-81
2022/05/04 01:54:19;;;;;;;;;;;;;;;;;;5137827;27;29205;-80
2022/05/04 01:56:44;;;;;;;;;;;;;;;;;;5137496;27;28483;-80
2022/05/04 01:59:09;;;;;;;;;;;;;;;;;;5137727;27;28429;-80
2022/05/04 02:01:34;;;;;;;;;;;;;;;;;;5137814;27;27786;-80
2022/05/04 02:03:59;;;;;;;;;;;;;;;;;;5137802;27;29042;-80
2022/05/04 02:06:24;;;;;;;;;;;;;;;;;;5137377;27;28491;-80
2022/05/04 02:08:50;;;;;;;;;;;;;;;;;;5137580;27;28326;-80
2022/05/04 02:11:16;;;;;;;;;;;;;;;;;;5137899;27;28315;-80
2022/05/04 02:13:41;;;;;;;;;;;;;;;;;;5137325;27;28574;-80
2022/05/04 02:16:06;;;;;;;;;;;;;;;;;;5136333;27;28411;-80
2022/05/04 02:18:31;;;;;;;;;;;;;;;;;;5137598;27;28476;-80
2022/05/04 02:20:56;;;;;;;;;;;;;;;;;;5137610;27;28364;-80
2022/05/04 02:23:21;;;;;;;;;;;;;;;;;;5137242;27;28451;-80
2022/05/04 02:25:47;;;;;;;;;;;;;;;;;;5137269;27;28483;-80
2022/05/04 02:28:12;;;;;;;;;;;;;;;;;;5137505;27;28393;-80
2022/05/04 02:30:37;;;;;;;;;;;;;;;;;;5137484;27;28293;-80
2022/05/04 02:33:02;;;;;;;;;;;;;;;;;;5137275;27;28659;-81
2022/05/04 02:38:11;;;;;;;;;;;;;;;;;;5137067;27;28504;-81
2022/05/04 02:40:36;;;;;;;;;;;;;;;;;;5137392;27;28379;-80
2022/05/04 02:43:04;;;;;;;;;;;;;;;;;;5137030;27;29038;-81
2022/05/04 02:45:29;;;;;;;;;;;;;;;;;;5137005;27;28460;-81
2022/05/04 02:47:54;;;;;;;;;;;;;;;;;;5137311;27;28353;-81
2022/05/04 02:50:19;;;;;;;;;;;;;;;;;;5137136;27;28311;-81
2022/05/04 02:52:44;;;;;;;;;;;;;;;;;;5136874;27;28395;-80
2022/05/04 02:55:09;;;;;;;;;;;;;;;;;;5137249;27;28394;-81
2022/05/04 02:57:34;;;;;;;;;;;;;;;;;;5136698;27;28330;-81
2022/05/04 02:59:59;;;;;;;;;;;;;;;;;;5135751;27;28506;-80
2022/05/04 03:02:27;;;;;;;;;;;;;;;;;;5136676;27;29569;-81
2022/05/04 03:04:52;;;;;;;;;;;;;;;;;;5136607;27;28674;-80
2022/05/04 03:07:18;;;;;;;;;;;;;;;;;;5136235;27;28459;-80
2022/05/04 03:09:43;;;;;;;;;;;;;;;;;;5136853;27;28479;-80
2022/05/04 03:12:08;;;;;;;;;;;;;;;;;;5136695;27;29384;-80
2022/05/04 03:14:33;;;;;;;;;;;;;;;;;;5136617;27;28345;-80
2022/05/04 03:16:58;;;;;;;;;;;;;;;;;;5136734;27;28462;-80
2022/05/04 03:19:23;;;;;;;;;;;;;;;;;;5136796;27;28511;-80
2022/05/04 03:21:48;;;;;;;;;;;;;;;;;;5136499;27;29242;-80
2022/05/04 03:24:14;;;;;;;;;;;;;;;;;;5136657;27;28387;-80
2022/05/04 03:26:39;;;;;;;;;;;;;;;;;;5136403;27;28436;-80
2022/05/04 03:29:04;;;;;;;;;;;;;;;;;;5136842;27;28314;-80
2022/05/04 03:31:29;;;;;;;;;;;;;;;;;;5134930;27;29703;-80
2022/05/04 03:33:55;;;;;;;;;;;;;;;;;;5136432;27;28410;-80
2022/05/04 03:36:20;;;;;;;;;;;;;;;;;;5136653;27;28745;-80
2022/05/04 03:38:45;;;;;;;;;;;;;;;;;;5136235;27;28396;-80
2022/05/04 03:41:10;;;;;;;;;;;;;;;;;;5136404;27;29368;-80
2022/05/04 03:43:35;;;;;;;;;;;;;;;;;;5136242;27;28334;-80
2022/05/04 03:46:00;;;;;;;;;;;;;;;;;;5136412;27;28479;-80
2022/05/04 03:48:25;;;;;;;;;;;;;;;;;;5136625;27;28474;-80
2022/05/04 03:50:51;;;;;;;;;;;;;;;;;;5136121;27;28608;-80
2022/05/04 03:53:16;;;;;;;;;;;;;;;;;;5136290;27;28393;-80
2022/05/04 03:55:41;;;;;;;;;;;;;;;;;;5136159;27;28455;-80
2022/05/04 03:58:06;;;;;;;;;;;;;;;;;;5122787;27;28499;-80
2022/05/04 04:00:31;;;;;;;;;;;;;;;;;;5124670;27;28539;-80
2022/05/04 04:02:56;;;;;;;;;;;;;;;;;;5115237;27;28446;-80
2022/05/04 04:05:23;;;;;;;;;;;;;;;;;;5115599;27;28384;-80
2022/05/04 04:07:48;;;;;;;;;;;;;;;;;;5115431;27;28418;-80
2022/05/04 04:10:13;;;;;;;;;;;;;;;;;;5115430;27;29830;-80
2022/05/04 04:12:38;;;;;;;;;;;;;;;;;;5115358;27;28493;-80
2022/05/04 04:15:03;;;;;;;;;;;;;;;;;;5115183;27;28367;-80
2022/05/04 04:17:29;;;;;;;;;;;;;;;;;;5115496;27;27809;-80
2022/05/04 04:22:38;;;;;;;;;;;;;;;;;;5118574;27;28290;-80
2022/05/04 04:25:03;;;;;;;;;;;;;;;;;;5118773;27;28512;-80
2022/05/04 04:27:28;;;;;;;;;;;;;;;;;;5118630;27;28382;-80
2022/05/04 04:29:53;;;;;;;;;;;;;;;;;;5118487;27;28545;-80
2022/05/04 04:32:19;;;;;;;;;;;;;;;;;;5118555;27;28345;-80
2022/05/04 04:34:44;;;;;;;;;;;;;;;;;;5117312;27;28394;-80
2022/05/04 04:37:09;;;;;;;;;;;;;;;;;;5118582;27;28298;-80
2022/05/04 04:39:34;;;;;;;;;;;;;;;;;;5118303;27;29035;-80
2022/05/04 04:41:59;;;;;;;;;;;;;;;;;;5118367;27;28244;-80
2022/05/04 04:44:25;;;;;;;;;;;;;;;;;;5118340;27;28288;-80
2022/05/04 04:46:50;;;;;;;;;;;;;;;;;;5118397;27;28313;-80
2022/05/04 04:49:15;;;;;;;;;;;;;;;;;;5118326;27;28595;-80
2022/05/04 04:51:40;;;;;;;;;;;;;;;;;;5116719;27;28264;-80
2022/05/04 04:54:05;;;;;;;;;;;;;;;;;;5118087;27;28470;-80
2022/05/04 04:56:31;;;;;;;;;;;;;;;;;;5118289;27;28319;-80
2022/05/04 04:58:56;;;;;;;;;;;;;;;;;;5117729;27;28366;-79
2022/05/04 05:01:21;;;;;;;;;;;;;;;;;;5117892;27;28263;-80
2022/05/04 05:03:46;;;;;;;;;;;;;;;;;;5118010;27;28308;-80
2022/05/04 05:06:12;;;;;;;;;;;;;;;;;;5118395;27;28494;-80
2022/05/04 05:08:37;;;;;;;;;;;;;;;;;;5117706;27;28418;-80
2022/05/04 05:11:02;;;;;;;;;;;;;;;;;;5117775;27;28389;-80
2022/05/04 05:13:27;;;;;;;;;;;;;;;;;;5118074;27;28417;-80
2022/05/04 05:16:08;;;;;;;;;;;;;;;;;;5117940;27;28376;-80
2022/05/04 05:18:33;;;;;;;;;;;;;;;;;;5117641;27;28508;-80
2022/05/04 05:20:58;;;;;;;;;;;;;;;;;;5117710;27;28274;-82
2022/05/04 05:23:23;;;;;;;;;;;;;;;;;;5117681;27;28361;-80
2022/05/04 05:25:48;;;;;;;;;;;;;;;;;;5117805;27;28305;-80
2022/05/04 05:28:13;;;;;;;;;;;;;;;;;;5117373;27;28294;-79
2022/05/04 05:30:39;;;;;;;;;;;;;;;;;;5117016;27;28393;-82
2022/05/04 05:33:04;;;;;;;;;;;;;;;;;;5117893;27;28351;-81
2022/05/04 05:35:29;;;;;;;;;;;;;;;;;;5117764;27;28343;-82
2022/05/04 05:37:54;;;;;;;;;;;;;;;;;;5117167;27;28328;-82
2022/05/04 05:40:19;;;;;;;;;;;;;;;;;;5117331;27;28290;-81
2022/05/04 05:42:45;;;;;;;;;;;;;;;;;;5117542;27;28522;-82
2022/05/04 05:45:10;;;;;;;;;;;;;;;;;;5117621;27;28389;-80
2022/05/04 05:47:35;;;;;;;;;;;;;;;;;;5117159;27;29297;-80
2022/05/04 05:50:00;;;;;;;;;;;;;;;;;;5117332;27;27944;-82
2022/05/04 05:52:25;;;;;;;;;;;;;;;;;;5117341;27;28331;-82
2022/05/04 05:54:50;;;;;;;;;;;;;;;;;;5117341;27;28385;-83
2022/05/04 05:57:16;;;;;;;;;;;;;;;;;;5117005;27;28437;-80
2022/05/04 05:59:41;;;;;;;;;;;;;;;;;;5117003;27;28274;-80
2022/05/04 06:02:06;;;;;;;;;;;;;;;;;;5117242;27;28334;-81
2022/05/04 06:04:31;;;;;;;;;;;;;;;;;;5117316;27;28278;-81
2022/05/04 06:06:56;;;;;;;;;;;;;;;;;;5115884;27;28397;-81
2022/05/04 06:09:21;;;;;;;;;;;;;;;;;;5116916;27;28455;-81
2022/05/04 06:11:47;;;;;;;;;;;;;;;;;;5115737;27;28381;-81
2022/05/04 06:14:12;;;;;;;;;;;;;;;;;;5115719;27;28447;-81
2022/05/04 06:16:37;;;;;;;;;;;;;;;;;;5116735;27;28614;-81
2022/05/04 06:19:02;;;;;;;;;;;;;;;;;;5116751;27;28423;-81
2022/05/04 06:21:27;;;;;;;;;;;;;;;;;;5117369;27;28385;-81
2022/05/04 06:23:52;;;;;;;;;;;;;;;;;;5116751;27;28343;-82
2022/05/04 06:26:20;;;;;;;;;;;;;;;;;;5116608;27;28439;-82
2022/05/04 06:28:45;;;;;;;;;;;;;;;;;;5118805;27;28450;-81
2022/05/04 06:34:12;;;;;;;;;;;;;;;;;;5116944;27;28408;-81
2022/05/04 06:36:39;;;;;;;;;;;;;;;;;;5116370;27;28609;-81
2022/05/04 06:39:04;;;;;;;;;;;;;;;;;;5116201;27;28476;-81
2022/05/04 06:41:30;;;;;;;;;;;;;;;;;;5115698;27;28384;-82
2022/05/04 06:43:55;;;;;;;;;;;;;;;;;;5116336;27;28335;-82
2022/05/04 06:46:20;;;;;;;;;;;;;;;;;;5116381;27;29114;-82
2022/05/04 06:48:45;;;;;;;;;;;;;;;;;;5116293;27;28331;-81
2022/05/04 06:51:10;;;;;;;;;;;;;;;;;;5116237;27;28499;-82
2022/05/04 06:53:36;;;;;;;;;;;;;;;;;;5116411;27;28368;-82
2022/05/04 06:56:01;;;;;;;;;;;;;;;;;;5116141;27;28412;-82
2022/05/04 06:58:26;;;;;;;;;;;;;;;;;;5116066;27;28518;-82
2022/05/04 07:00:52;;;;;;;;;;;;;;;;;;5116118;27;28384;-82
2022/05/04 07:03:17;;;;;;;;;;;;;;;;;;5116280;27;28314;-82
2022/05/04 07:05:43;;;;;;;;;;;;;;;;;;5116170;27;28466;-82
2022/05/04 07:08:09;;;;;;;;;;;;;;;;;;5115858;27;28311;-81
2022/05/04 07:10:34;;;;;;;;;;;;;;;;;;5116030;27;28243;-82
2022/05/04 07:13:00;;;;;;;;;;;;;;;;;;5116263;27;28568;-81
2022/05/04 07:15:25;;;;;;;;;;;;;;;;;;5115722;27;28485;-81
2022/05/04 07:17:50;;;;;;;;;;;;;;;;;;5116178;27;28372;-81
2022/05/04 07:20:16;;;;;;;;;;;;;;;;;;5115876;27;28396;-81
2022/05/04 07:22:41;;;;;;;;;;;;;;;;;;5116098;27;28512;-81
2022/05/04 07:25:06;;;;;;;;;;;;;;;;;;5115984;27;28492;-81
2022/05/04 07:27:31;;;;;;;;;;;;;;;;;;5115921;27;28522;-81
2022/05/04 07:29:56;;;;;;;;;;;;;;;;;;5116043;27;28630;-82
2022/05/04 07:32:21;;;;;;;;;;;;;;;;;;5115932;27;28362;-82
2022/05/04 07:34:46;;;;;;;;;;;;;;;;;;5115705;27;29541;-81
2022/05/04 07:37:12;;;;;;;;;;;;;;;;;;5115921;27;27838;-82
2022/05/04 07:42:21;;;;;;;;;;;;;;;;;;5115792;27;28448;-82
2022/05/04 07:44:46;;;;;;;;;;;;;;;;;;5115681;27;29442;-82
2022/05/04 07:47:11;;;;;;;;;;;;;;;;;;5115703;27;28494;-81
2022/05/04 07:49:36;;;;;;;;;;;;;;;;;;5115691;27;28239;-81
2022/05/04 07:52:01;;;;;;;;;;;;;;;;;;5116054;27;28285;-81
2022/05/04 07:54:28;;;;;;;;;;;;;;;;;;5119019;27;28395;-82
2022/05/04 07:56:53;;;;;;;;;;;;;;;;;;5117825;27;28390;-82
2022/05/04 07:59:19;;;;;;;;;;;;;;;;;;5117505;27;28460;-81
2022/05/04 08:04:28;;;;;;;;;;;;;;;;;;5119119;27;28728;-81
2022/05/04 08:06:53;;;;;;;;;;;;;;;;;;5118997;27;28390;-81
2022/05/04 08:09:18;;;;;;;;;;;;;;;;;;5118703;27;28330;-81
2022/05/04 08:11:43;;;;;;;;;;;;;;;;;;5119027;27;27933;-82
2022/05/04 08:14:08;;;;;;;;;;;;;;;;;;5118599;27;28090;-82
2022/05/04 08:16:33;;;;;;;;;;;;;;;;;;5118965;27;28330;-82
2022/05/04 08:19:00;;;;;;;;;;;;;;;;;;5118878;27;28455;-81
2022/05/04 08:21:25;;;;;;;;;;;;;;;;;;5118830;27;28381;-82
2022/05/04 08:23:50;;;;;;;;;;;;;;;;;;5118286;27;28366;-82
2022/05/04 08:26:15;;;;;;;;;;;;;;;;;;5118528;27;28315;-82
2022/05/04 08:28:40;;;;;;;;;;;;;;;;;;5118819;27;28389;-81
2022/05/04 08:31:06;;;;;;;;;;;;;;;;;;5118726;27;28512;-82
2022/05/04 08:33:31;;;;;;;;;;;;;;;;;;5118729;27;29221;-82
2022/05/04 08:35:56;;;;;;;;;;;;;;;;;;5118613;27;28404;-82
2022/05/04 08:38:22;;;;;;;;;;;;;;;;;;5118548;27;28542;-82
2022/05/04 08:40:47;;;;;;;;;;;;;;;;;;5118651;27;28251;-82
2022/05/04 08:43:13;;;;;;;;;;;;;;;;;;5116921;27;29751;-82
2022/05/04 08:45:38;;;;;;;;;;;;;;;;;;5118533;27;28551;-82
2022/05/04 08:48:04;;;;;;;;;;;;;;;;;;5118321;27;28468;-82
2022/05/04 08:50:30;;;;;;;;;;;;;;;;;;5118445;27;28250;-82
2022/05/04 08:52:55;;;;;;;;;;;;;;;;;;5118276;27;28396;-82
2022/05/04 08:55:20;;;;;;;;;;;;;;;;;;5117914;27;28356;-82
2022/05/04 08:57:46;;;;;;;;;;;;;;;;;;5118154;27;28251;-82
2022/05/04 09:00:11;;;;;;;;;;;;;;;;;;5118217;27;28236;-82
2022/05/04 09:02:36;;;;;;;;;;;;;;;;;;5117939;27;29533;-82
2022/05/04 09:05:01;;;;;;;;;;;;;;;;;;5117439;27;28595;-82
2022/05/04 09:07:26;;;;;;;;;;;;;;;;;;5117981;27;28462;-82
2022/05/04 09:09:52;;;;;;;;;;;;;;;;;;5118056;27;28497;-82
2022/05/04 09:12:17;;;;;;;;;;;;;;;;;;5117627;27;29142;-82
2022/05/04 09:14:42;;;;;;;;;;;;;;;;;;5117817;27;28350;-82
2022/05/04 09:17:07;;;;;;;;;;;;;;;;;;5118240;27;28337;-82
2022/05/04 09:19:32;;;;;;;;;;;;;;;;;;5117672;27;28433;-82
2022/05/04 09:21:58;;;;;;;;;;;;;;;;;;5117760;27;28948;-82
2022/05/04 09:24:23;;;;;;;;;;;;;;;;;;5117481;27;28506;-82
2022/05/04 09:26:48;;;;;;;;;;;;;;;;;;5117755;27;28579;-82
2022/05/04 09:29:13;;;;;;;;;;;;;;;;;;5116482;27;28401;-83
2022/05/04 09:31:38;;;;;;;;;;;;;;;;;;5117777;27;28330;-82
2022/05/04 09:34:04;;;;;;;;;;;;;;;;;;5117862;27;28342;-83
2022/05/04 09:36:29;;;;;;;;;;;;;;;;;;5117393;27;28420;-83
2022/05/04 09:47:06;;;;;;;;;;;;;;;;;;5117565;27;28464;-83
2022/05/04 09:49:33;;;;;;;;;;;;;;;;;;5117625;27;28471;-83
2022/05/04 09:51:58;;;;;;;;;;;;;;;;;;5117216;27;28470;-83
2022/05/04 09:54:23;;;;;;;;;;;;;;;;;;5115827;27;28388;-83
2022/05/04 09:56:48;;;;;;;;;;;;;;;;;;5117136;27;28452;-83
2022/05/04 09:59:14;;;;;;;;;;;;;;;;;;5117097;27;28906;-83
2022/05/04 10:01:39;;;;;;;;;;;;;;;;;;5114560;27;28558;-83
2022/05/04 10:04:04;;;;;;;;;;;;;;;;;;5116970;27;28402;-83
2022/05/04 10:06:29;;;;;;;;;;;;;;;;;;5117099;27;28405;-82
2022/05/04 10:08:55;;;;;;;;;;;;;;;;;;5116927;27;28578;-83
2022/05/04 10:11:20;;;;;;;;;;;;;;;;;;5116974;27;28353;-83
2022/05/04 10:13:45;;;;;;;;;;;;;;;;;;5116720;27;28378;-83
2022/05/04 10:16:11;;;;;;;;;;;;;;;;;;5115690;27;28456;-83
2022/05/04 10:18:36;;;;;;;;;;;;;;;;;;5116961;27;28462;-83
2022/05/04 10:21:02;;;;;;;;;;;;;;;;;;5117393;27;28607;-83
2022/05/04 10:23:27;;;;;;;;;;;;;;;;;;5137425;27;28305;-81
2022/05/04 10:25:52;;;;;;;;;;;;;;;;;;5133904;27;28499;-82
2022/05/04 10:28:17;;;;;;;;;;;;;;;;;;5135477;27;28473;-84
2022/05/04 10:30:43;;;;;;;;;;;;;;;;;;5135437;27;28434;-84
2022/05/04 10:33:10;;;;;;;;;;;;;;;;;;5136332;27;29743;-84
2022/05/04 10:35:36;;;;;;;;;;;;;;;;;;5136021;27;28414;-84
2022/05/04 10:38:01;;;;;;;;;;;;;;;;;;5136775;27;28509;-84
2022/05/04 10:40:26;;;;;;;;;;;;;;;;;;5136026;27;28538;-84
2022/05/04 10:42:51;;;;;;;;;;;;;;;;;;5135411;27;28494;-83
2022/05/04 10:45:16;;;;;;;;;;;;;;;;;;5134819;27;28317;-87
2022/05/04 10:47:41;;;;;;;;;;;;;;;;;;5134767;27;28497;-92
2022/05/04 10:50:06;;;;;;;;;;;;;;;;;;5135661;27;28472;-86
2022/05/04 10:52:32;;;;;;;;;;;;;;;;;;5136293;27;28382;-84
2022/05/04 10:54:59;;;;;;;;;;;;;;;;;;5142542;27;28438;-84
2022/05/04 10:57:24;;;;;;;;;;;;;;;;;;5141676;27;28425;-84
2022/05/04 10:59:49;;;;;;;;;;;;;;;;;;5136112;27;28556;-87
2022/05/04 11:02:14;;;;;;;;;;;;;;;;;;5136363;27;28578;-87
2022/05/04 11:04:39;;;;;;;;;;;;;;;;;;5135986;27;28346;-88
2022/05/04 11:07:07;;;;;;;;;;;;;;;;;;5136130;27;28345;-89
2022/05/04 11:09:32;;;;;;;;;;;;;;;;;;5136012;27;28453;-89
2022/05/04 11:11:57;;;;;;;;;;;;;;;;;;5136127;27;28413;-80
2022/05/04 11:14:22;;;;;;;;;;;;;;;;;;5136024;27;28285;-88
2022/05/04 11:16:47;;;;;;;;;;;;;;;;;;5136399;27;28383;-82
2022/05/04 11:19:13;;;;;;;;;;;;;;;;;;5135720;27;28468;-84
2022/05/04 11:21:38;;;;;;;;;;;;;;;;;;5135510;27;28453;-85
2022/05/04 11:24:03;;;;;;;;;;;;;;;;;;5135147;27;28488;-91
2022/05/04 11:26:28;;;;;;;;;;;;;;;;;;5136593;27;28274;-91
2022/05/04 11:28:54;;;;;;;;;;;;;;;;;;5139434;27;28663;-89
2022/05/04 11:31:19;;;;;;;;;;;;;;;;;;5137731;27;29808;-92
2022/05/04 11:33:44;;;;;;;;;;;;;;;;;;5139950;27;28418;-91
2022/05/04 11:36:09;;;;;;;;;;;;;;;;;;5140283;27;28696;-91
2022/05/04 11:38:34;;;;;;;;;;;;;;;;;;5139597;27;28548;-88
2022/05/04 11:40:59;;;;;;;;;;;;;;;;;;5139107;27;28551;-86
2022/05/04 11:43:24;;;;;;;;;;;;;;;;;;5139318;27;28532;-86
2022/05/04 11:45:50;;;;;;;;;;;;;;;;;;5139594;27;28448;-89
2022/05/04 11:48:15;;;;;;;;;;;;;;;;;;5139302;27;28476;-92
2022/05/04 11:50:40;;;;;;;;;;;;;;;;;;5137819;27;29181;-89
2022/05/04 11:53:05;;;;;;;;;;;;;;;;;;5139635;27;28468;-90
2022/05/04 11:55:30;;;;;;;;;;;;;;;;;;5137908;27;28594;-91
2022/05/04 11:57:56;;;;;;;;;;;;;;;;;;5137211;27;28840;-91
2022/05/04 12:00:21;;;;;;;;;;;;;;;;;;5137352;27;29505;-89
2022/05/04 12:02:46;;;;;;;;;;;;;;;;;;5138812;27;28551;-90
2022/05/04 12:05:11;;;;;;;;;;;;;;;;;;5138102;27;28565;-90
2022/05/04 12:07:36;;;;;;;;;;;;;;;;;;5138140;27;29474;-92
2022/05/04 12:10:01;;;;;;;;;;;;;;;;;;5139120;27;28456;-90
2022/05/04 12:12:26;;;;;;;;;;;;;;;;;;5138723;27;28526;-89
2022/05/04 12:14:52;;;;;;;;;;;;;;;;;;5138390;27;28514;-89
2022/05/04 12:17:17;;;;;;;;;;;;;;;;;;5137745;27;28528;-89
2022/05/04 12:19:42;;;;;;;;;;;;;;;;;;5136638;27;28535;-88
2022/05/04 12:22:08;;;;;;;;;;;;;;;;;;5132527;27;28830;-90
2022/05/04 12:24:33;;;;;;;;;;;;;;;;;;5138351;27;28379;-87
2022/05/04 12:26:59;;;;;;;;;;;;;;;;;;5138891;27;28517;-91
2022/05/04 12:34:52;;;;;;;;;;;;;;;;;;5125660;27;27937;-87
2022/05/04 12:37:19;;;;;;;;;;;;;;;;;;5139002;27;29256;-93
2022/05/04 12:39:44;;;;;;;;;;;;;;;;;;5136234;27;28602;-87
2022/05/04 12:42:09;;;;;;;;;;;;;;;;;;5138408;27;28397;-89
2022/05/04 12:44:34;;;;;;;;;;;;;;;;;;5138808;27;28527;-89
2022/05/04 12:47:01;;;;;;;;;;;;;;;;;;5138526;27;28397;-91
2022/05/04 12:49:27;;;;;;;;;;;;;;;;;;5137311;27;28558;-91
2022/05/04 12:51:52;;;;;;;;;;;;;;;;;;5138573;27;28334;-89
2022/05/04 12:54:17;;;;;;;;;;;;;;;;;;5137291;27;28324;-86
2022/05/04 12:56:46;;;;;;;;;;;;;;;;;;5144172;27;29152;-89
2022/05/04 12:59:12;;;;;;;;;;;;;;;;;;5147278;27;28262;-89
2022/05/04 13:01:37;;;;;;;;;;;;;;;;;;5136632;27;28751;-91
2022/05/04 13:04:02;;;;;;;;;;;;;;;;;;5138362;27;28479;-84
2022/05/04 13:06:27;;;;;;;;;;;;;;;;;;5136226;27;28526;-84
2022/05/04 13:08:52;;;;;;;;;;;;;;;;;;5137967;27;28464;-84
2022/05/04 13:11:17;;;;;;;;;;;;;;;;;;5136813;27;28472;-84
2022/05/04 13:13:42;;;;;;;;;;;;;;;;;;5138077;27;28533;-85
2022/05/04 13:16:08;;;;;;;;;;;;;;;;;;5151606;27;29508;-84
2022/05/04 13:18:33;;;;;;;;;;;;;;;;;;5158934;27;28450;-85
2022/05/04 13:20:58;;;;;;;;;;;;;;;;;;5157706;27;28482;-88
2022/05/04 13:23:23;;;;;;;;;;;;;;;;;;5159448;27;28244;-91
2022/05/04 13:25:48;;;;;;;;;;;;;;;;;;5158692;27;28569;-83
2022/05/04 13:28:13;;;;;;;;;;;;;;;;;;5158414;27;28383;-89
2022/05/04 13:30:39;;;;;;;;;;;;;;;;;;5141090;27;28723;-88
2022/05/04 13:33:04;;;;;;;;;;;;;;;;;;5138505;27;28416;-86
2022/05/04 13:35:30;;;;;;;;;;;;;;;;;;5137936;27;28451;-84
2022/05/04 13:37:55;;;;;;;;;;;;;;;;;;5138090;27;28431;-85
2022/05/04 13:40:20;;;;;;;;;;;;;;;;;;5137672;27;28486;-85
2022/05/04 13:42:47;;;;;;;;;;;;;;;;;;5137944;27;28353;-85
2022/05/04 13:45:12;;;;;;;;;;;;;;;;;;5138138;27;28655;-85
2022/05/04 13:47:37;;;;;;;;;;;;;;;;;;5137939;27;28534;-85
2022/05/04 13:50:02;;;;;;;;;;;;;;;;;;5137900;27;28330;-84
2022/05/04 13:55:11;;;;;;;;;;;;;;;;;;5137700;27;28415;-86
2022/05/04 13:57:36;;;;;;;;;;;;;;;;;;5137804;27;28436;-85
2022/05/04 14:00:01;;;;;;;;;;;;;;;;;;5137728;27;28475;-85
2022/05/04 14:02:27;;;;;;;;;;;;;;;;;;5140543;27;28429;-84
2022/05/04 14:04:52;;;;;;;;;;;;;;;;;;5157872;27;28638;-85
2022/05/04 14:07:17;;;;;;;;;;;;;;;;;;5146302;27;28319;-85
2022/05/04 14:09:42;;;;;;;;;;;;;;;;;;5135924;27;28486;-84
2022/05/04 14:12:07;;;;;;;;;;;;;;;;;;5137146;27;28289;-83
2022/05/04 14:17:16;;;;;;;;;;;;;;;;;;5137255;27;28514;-85
2022/05/04 14:19:41;;;;;;;;;;;;;;;;;;5137605;27;28423;-85
2022/05/04 14:22:06;;;;;;;;;;;;;;;;;;5136516;27;28584;-85
2022/05/04 14:24:31;;;;;;;;;;;;;;;;;;5141019;27;29723;-88
2022/05/04 14:26:56;;;;;;;;;;;;;;;;;;5156796;27;28610;-85
2022/05/04 14:29:22;;;;;;;;;;;;;;;;;;5153163;27;28449;-84
2022/05/04 14:31:47;;;;;;;;;;;;;;;;;;5137724;27;28305;-84
2022/05/04 14:34:12;;;;;;;;;;;;;;;;;;5137195;27;29275;-84
2022/05/04 14:36:37;;;;;;;;;;;;;;;;;;5137391;27;28313;-83
2022/05/04 14:39:03;;;;;;;;;;;;;;;;;;5137214;27;28444;-83
2022/05/04 14:41:28;;;;;;;;;;;;;;;;;;5137395;27;28380;-83
2022/05/04 14:43:53;;;;;;;;;;;;;;;;;;5151487;27;29516;-85
2022/05/04 14:46:18;;;;;;;;;;;;;;;;;;5141978;27;28275;-80
2022/05/04 14:48:43;;;;;;;;;;;;;;;;;;5137193;27;28296;-82
2022/05/04 14:51:08;;;;;;;;;;;;;;;;;;5137228;27;28466;-87
2022/05/04 14:53:33;;;;;;;;;;;;;;;;;;5136966;27;29393;-84
2022/05/04 14:55:58;;;;;;;;;;;;;;;;;;5136482;27;27949;-90
2022/05/04 14:58:26;;;;;;;;;;;;;;;;;;5136512;27;28435;-87
2022/05/04 15:00:52;;;;;;;;;;;;;;;;;;5135539;27;27845;-87
2022/05/04 15:06:06;;;;;;;;;;;;;;;;;;5136519;27;28376;-87
2022/05/04 15:08:31;;;;;;;;;;;;;;;;;;5137179;27;28393;-86
2022/05/04 15:10:56;;;;;;;;;;;;;;;;;;5136467;27;28619;-87
2022/05/04 15:13:21;;;;;;;;;;;;;;;;;;5134878;27;28492;-87
2022/05/04 15:15:46;;;;;;;;;;;;;;;;;;5131104;27;28333;-87
2022/05/04 15:18:11;;;;;;;;;;;;;;;;;;5135190;27;28496;-86
2022/05/04 15:20:36;;;;;;;;;;;;;;;;;;5135436;27;28435;-86
2022/05/04 15:23:02;;;;;;;;;;;;;;;;;;5135113;27;29402;-87
2022/05/04 15:25:27;;;;;;;;;;;;;;;;;;5134870;27;28271;-86
2022/05/04 15:27:52;;;;;;;;;;;;;;;;;;5135547;27;28579;-87
2022/05/04 15:30:17;;;;;;;;;;;;;;;;;;5136560;27;28324;-86
2022/05/04 15:32:43;;;;;;;;;;;;;;;;;;5135265;27;28408;-86
2022/05/04 15:35:08;;;;;;;;;;;;;;;;;;5134878;27;28487;-87
2022/05/04 15:37:33;;;;;;;;;;;;;;;;;;5133414;27;28388;-86
2022/05/04 15:39:58;;;;;;;;;;;;;;;;;;5135067;27;28413;-87
2022/05/04 15:42:23;;;;;;;;;;;;;;;;;;5133253;27;28666;-87
2022/05/04 15:44:48;;;;;;;;;;;;;;;;;;5135044;27;28318;-86
2022/05/04 15:47:13;;;;;;;;;;;;;;;;;;5136900;27;28453;-88
2022/05/04 15:49:39;;;;;;;;;;;;;;;;;;5135080;27;28462;-89
2022/05/04 15:52:05;;;;;;;;;;;;;;;;;;5134528;27;28597;-87
2022/05/04 15:54:31;;;;;;;;;;;;;;;;;;5134717;27;28493;-86
2022/05/04 15:56:56;;;;;;;;;;;;;;;;;;5134476;27;29061;-85
2022/05/04 15:59:21;;;;;;;;;;;;;;;;;;5134512;27;28529;-85
2022/05/04 16:01:46;;;;;;;;;;;;;;;;;;5134596;27;28767;-85
2022/05/04 16:04:13;;;;;;;;;;;;;;;;;;5133269;27;28613;-85
2022/05/04 16:06:38;;;;;;;;;;;;;;;;;;5134358;27;28451;-85
2022/05/04 16:09:03;;;;;;;;;;;;;;;;;;5131233;27;29883;-84
2022/05/04 16:11:28;;;;;;;;;;;;;;;;;;5127233;27;28419;-84
2022/05/04 16:13:55;;;;;;;;;;;;;;;;;;5136595;27;28488;-82
2022/05/04 16:16:21;;;;;;;;;;;;;;;;;;5124924;27;28437;-82
2022/05/04 16:24:04;;;;;;;;;;;;;;;;;;5118889;27;28456;-85
2022/05/04 16:26:29;;;;;;;;;;;;;;;;;;5125603;27;28594;-83
2022/05/04 16:28:55;;;;;;;;;;;;;;;;;;5139409;27;28333;-83
2022/05/04 16:31:20;;;;;;;;;;;;;;;;;;5138935;27;28400;-87
2022/05/04 16:33:45;;;;;;;;;;;;;;;;;;5125732;27;28392;-84
2022/05/04 16:36:10;;;;;;;;;;;;;;;;;;5118938;27;28402;-83
2022/05/04 16:38:35;;;;;;;;;;;;;;;;;;5118616;27;28520;-84
2022/05/04 16:41:00;;;;;;;;;;;;;;;;;;5122419;27;29550;-84
2022/05/04 16:43:25;;;;;;;;;;;;;;;;;;5127345;27;28453;-84
2022/05/04 16:45:51;;;;;;;;;;;;;;;;;;5132223;27;28559;-85
2022/05/04 16:48:16;;;;;;;;;;;;;;;;;;5118160;27;28426;-85
2022/05/04 16:50:43;;;;;;;;;;;;;;;;;;5117619;27;29461;-85
2022/05/04 16:53:08;;;;;;;;;;;;;;;;;;5118002;27;28765;-85
2022/05/04 16:55:33;;;;;;;;;;;;;;;;;;5133048;27;28463;-85
2022/05/04 16:57:58;;;;;;;;;;;;;;;;;;5137357;27;28391;-85
2022/05/04 17:00:23;;;;;;;;;;;;;;;;;;5138368;27;28566;-85
2022/05/04 17:02:49;;;;;;;;;;;;;;;;;;5136911;27;28375;-85
2022/05/04 17:05:14;;;;;;;;;;;;;;;;;;5138464;27;28460;-85
2022/05/04 17:07:39;;;;;;;;;;;;;;;;;;5121966;27;28997;-85
2022/05/04 17:10:04;;;;;;;;;;;;;;;;;;5117337;27;29770;-82
2022/05/04 17:12:29;;;;;;;;;;;;;;;;;;5117426;27;28507;-86
2022/05/04 17:14:54;;;;;;;;;;;;;;;;;;5117211;27;28609;-85